Time;durP1;ratioP1;P1;durP2;ratioP2;P2;SDS_P1;SDS_P2;PMS_P1;PMS_P2;Temp;Humidity;BMP_temperature;BMP_pressure;BME280_temperature;BME280_humidity;BME280_pressure;Samples;Min_cycle;Max_cycle;Signal;HPM_P1;HPM_P2
2022/09/27 00:00:37;;;;;;;9.27;5.32;;;;;;;10.56;100.00;99046.66;5076028;28;20023;-73
2022/09/27 00:03:03;;;;;;;14.20;6.70;;;;;;;10.65;100.00;99039.22;5076522;28;20020;-74
2022/09/27 00:05:29;;;;;;;13.00;6.80;;;;;;;10.62;100.00;99050.44;5076789;28;20027;-73
2022/09/27 00:07:54;;;;;;;7.85;5.10;;;;;;;10.66;100.00;99040.88;5076022;28;20057;-74
2022/09/27 00:10:20;;;;;;;13.40;6.68;;;;;;;10.79;100.00;99040.91;5076228;28;20044;-75
2022/09/27 00:12:47;;;;;;;9.55;5.60;;;;;;;10.77;100.00;99034.88;5076297;28;20031;-74
2022/09/27 00:15:12;;;;;;;11.65;6.30;;;;;;;10.43;100.00;99036.66;5075880;28;20016;-75
2022/09/27 00:17:38;;;;;;;12.95;7.32;;;;;;;10.48;100.00;99044.97;5076452;28;20032;-75
2022/09/27 00:20:05;;;;;;;15.98;6.80;;;;;;;10.27;100.00;99037.00;5076147;28;20437;-75
2022/09/27 00:22:31;;;;;;;19.15;9.05;;;;;;;10.45;100.00;99034.56;5075981;28;20020;-75
2022/09/27 00:24:57;;;;;;;13.50;9.35;;;;;;;10.50;100.00;99034.81;5076245;28;20111;-76
2022/09/27 00:27:24;;;;;;;10.27;7.32;;;;;;;10.47;100.00;99029.78;5075432;28;20380;-75
2022/09/27 00:29:50;;;;;;;19.15;7.35;;;;;;;10.72;100.00;99023.84;5075229;28;20035;-75
2022/09/27 00:32:15;;;;;;;13.15;8.40;;;;;;;10.67;100.00;99023.59;5076152;28;20028;-73
2022/09/27 00:34:40;;;;;;;10.75;6.88;;;;;;;10.57;100.00;99027.53;5075564;28;20012;-74
2022/09/27 00:37:07;;;;;;;10.30;6.57;;;;;;;10.69;100.00;99013.41;5075833;28;20024;-74
2022/09/27 00:39:33;;;;;;;10.23;6.63;;;;;;;10.49;100.00;99019.59;5075544;28;20028;-74
2022/09/27 00:41:58;;;;;;;15.90;9.45;;;;;;;10.49;100.00;99018.75;5075566;28;20031;-74
2022/09/27 00:44:24;;;;;;;11.57;7.50;;;;;;;10.48;100.00;99017.91;5075823;28;20118;-74
2022/09/27 00:47:02;;;;;;;12.75;7.43;;;;;;;10.56;100.00;99014.19;5075282;28;20023;-73
2022/09/27 00:49:56;;;;;;;14.32;10.15;;;;;;;10.62;100.00;99013.38;5093346;28;20102;-74
2022/09/27 00:52:24;;;;;;;14.15;8.57;;;;;;;10.55;100.00;99007.94;5075160;28;20020;-75
2022/09/27 00:54:56;;;;;;;13.70;8.30;;;;;;;10.53;100.00;99007.34;5075224;28;20028;-74
2022/09/27 00:57:22;;;;;;;17.38;9.35;;;;;;;10.46;100.00;99009.19;5074547;28;20016;-73
2022/09/27 01:00:04;;;;;;;16.73;10.52;;;;;;;10.58;100.00;99001.31;5075407;28;20074;-74
2022/09/27 01:02:30;;;;;;;12.70;9.15;;;;;;;10.52;100.00;99002.97;5075383;28;20541;-75
2022/09/27 01:04:56;;;;;;;14.95;8.43;;;;;;;10.50;100.00;99005.06;5075354;28;20024;-74
2022/09/27 01:07:21;;;;;;;12.13;6.82;;;;;;;10.51;100.00;98995.88;5074915;28;20367;-74
2022/09/27 01:09:47;;;;;;;16.73;8.95;;;;;;;10.57;100.00;98995.06;5074996;28;20039;-74
2022/09/27 01:12:18;;;;;;;15.02;8.63;;;;;;;10.75;100.00;98996.34;5070645;28;20031;-73
2022/09/27 01:15:02;;;;;;;13.23;8.98;;;;;;;10.63;100.00;98989.84;5074528;28;20024;-73
2022/09/27 01:17:47;;;;;;;14.52;8.80;;;;;;;10.55;100.00;98990.88;5069744;28;20038;-73
2022/09/27 01:20:46;;;;;;;10.85;7.47;;;;;;;10.68;100.00;98981.97;5070487;28;20042;-75
2022/09/27 01:23:38;;;;;;;14.23;8.52;;;;;;;10.62;100.00;98985.50;5074654;28;20031;-74
2022/09/27 01:26:13;;;;;;;17.42;8.02;;;;;;;10.50;100.00;98978.00;5075164;28;20035;-73
2022/09/27 01:29:06;;;;;;;11.80;8.07;;;;;;;10.57;100.00;98981.53;5073962;28;20039;-72
2022/09/27 01:31:38;;;;;;;11.23;7.88;;;;;;;10.52;100.00;98981.31;5069060;28;20031;-72
2022/09/27 01:34:11;;;;;;;17.85;8.40;;;;;;;10.46;100.00;98970.47;5074242;28;20055;-73
2022/09/27 01:37:00;;;;;;;16.95;9.27;;;;;;;10.63;100.00;98971.78;5074385;28;20106;-72
2022/09/27 01:39:44;;;;;;;16.17;9.60;;;;;;;10.65;100.00;98979.69;5052713;28;20043;-74
2022/09/27 01:42:27;;;;;;;14.07;8.18;;;;;;;10.55;100.00;98972.78;5074478;28;20020;-75
2022/09/27 01:45:09;;;;;;;13.82;7.00;;;;;;;10.68;100.00;98969.25;5065033;28;20047;-74
2022/09/27 01:47:42;;;;;;;16.05;8.68;;;;;;;10.55;100.00;98964.66;5087746;28;20020;-74
2022/09/27 01:50:13;;;;;;;11.40;8.15;;;;;;;10.68;100.00;98957.59;5073851;28;20038;-74
2022/09/27 01:52:46;;;;;;;17.80;9.07;;;;;;;10.80;100.00;98961.38;5074720;28;20476;-75
2022/09/27 01:55:15;;;;;;;14.27;9.18;;;;;;;10.81;100.00;98952.22;5074331;28;20028;-73
2022/09/27 01:57:48;;;;;;;14.85;8.23;;;;;;;10.67;100.00;98950.53;5073858;28;20034;-73
2022/09/27 02:00:13;;;;;;;19.30;9.57;;;;;;;10.82;100.00;98959.28;5074118;28;20019;-74
2022/09/27 02:02:44;;;;;;;13.75;7.97;;;;;;;10.71;100.00;98951.81;5074394;28;20027;-74
2022/09/27 02:05:16;;;;;;;16.00;9.98;;;;;;;10.70;100.00;98944.72;5073747;28;20019;-74
2022/09/27 02:07:45;;;;;;;;;;;;;;;10.68;100.00;98952.19;5073962;28;20072;-73
2022/09/27 02:10:16;;;;;;;17.98;10.60;;;;;;;10.53;100.00;98950.50;5073795;28;19915;-74
2022/09/27 02:12:50;;;;;;;13.05;8.45;;;;;;;10.69;100.00;98940.31;5073752;28;20114;-74
2022/09/27 02:15:17;;;;;;;14.75;9.93;;;;;;;10.79;100.00;98943.47;5072838;28;20082;-74
2022/09/27 02:17:53;;;;;;;12.80;9.05;;;;;;;10.77;100.00;98940.16;5073596;28;20043;-74
2022/09/27 02:20:32;;;;;;;13.35;8.55;;;;;;;10.64;100.00;98937.44;5091511;28;20087;-75
2022/09/27 02:23:35;;;;;;;18.48;11.35;;;;;;;10.83;100.00;98933.91;5091609;28;20027;-73
2022/09/27 02:26:10;;;;;;;15.02;9.75;;;;;;;10.64;100.00;98937.44;5072661;28;20024;-74
2022/09/27 02:31:12;;;;;;;11.35;8.25;;;;;;;10.51;100.00;98939.06;5057195;28;20041;-76
2022/09/27 02:33:52;;;;;;;11.00;6.97;;;;;;;10.59;100.00;98941.56;5060057;28;20027;-76
2022/09/27 02:36:19;;;;;;;12.50;9.05;;;;;;;10.49;100.00;98945.72;5052480;28;20073;-76
2022/09/27 02:38:45;;;;;;;16.30;10.27;;;;;;;10.49;100.00;98938.41;5034092;28;20449;-76
2022/09/27 02:41:15;;;;;;;13.07;9.93;;;;;;;10.57;100.00;98932.84;5035166;28;20051;-77
2022/09/27 02:43:43;;;;;;;12.82;9.00;;;;;;;10.64;100.00;98929.31;5037578;28;20024;-77
2022/09/27 02:46:36;;;;;;;9.98;6.68;;;;;;;10.68;100.00;98925.13;5039442;28;20036;-77
2022/09/27 02:49:24;;;;;;;10.45;6.32;;;;;;;10.75;100.00;98925.97;5053425;28;20131;-77
2022/09/27 02:52:05;;;;;;;13.57;8.90;;;;;;;10.82;100.00;98933.09;5038345;28;20083;-77
2022/09/27 02:54:49;;;;;;;15.75;9.38;;;;;;;10.64;100.00;98923.91;5038491;28;20024;-77
2022/09/27 02:57:51;;;;;;;13.73;9.70;;;;;;;10.83;100.00;98925.78;5025384;28;20079;-77
2022/09/27 03:00:19;;;;;;;20.83;9.30;;;;;;;10.73;100.00;98922.66;5038004;28;20088;-77
2022/09/27 03:03:10;;;;;;;12.85;8.55;;;;;;;10.56;100.00;98912.25;5038394;28;20048;-77
2022/09/27 03:05:57;;;;;;;17.23;10.50;;;;;;;10.58;100.00;98912.84;5034786;28;20037;-77
2022/09/27 03:08:23;;;;;;;12.68;7.55;;;;;;;10.78;100.00;98912.88;5038954;28;20037;-77
2022/09/27 03:10:49;;;;;;;13.30;8.20;;;;;;;10.67;100.00;98918.06;5039742;28;20025;-77
2022/09/27 03:13:14;;;;;;;10.18;7.68;;;;;;;10.65;100.00;98910.16;5038503;28;20025;-77
2022/09/27 03:15:40;;;;;;;12.43;8.25;;;;;;;10.79;100.00;98908.28;5056563;28;20525;-77
2022/09/27 03:18:05;;;;;;;13.63;7.20;;;;;;;10.75;100.00;98915.16;5055170;28;20024;-75
2022/09/27 03:20:30;;;;;;;17.13;10.32;;;;;;;10.68;100.00;98908.91;5037537;28;20013;-76
2022/09/27 03:22:56;;;;;;;14.50;8.98;;;;;;;10.83;100.00;98907.69;5037359;28;20029;-76
2022/09/27 03:25:21;;;;;;;19.30;8.23;;;;;;;10.66;100.00;98905.56;5037757;28;20016;-75
2022/09/27 03:27:46;;;;;;;18.20;8.40;;;;;;;10.80;100.00;98897.25;5038090;28;20024;-75
2022/09/27 03:30:13;;;;;;;19.15;9.80;;;;;;;10.75;100.00;98898.91;5037740;28;20017;-74
2022/09/27 03:32:43;;;;;;;14.50;8.85;;;;;;;10.73;100.00;98898.28;5037499;28;20055;-75
2022/09/27 03:35:09;;;;;;;15.55;9.68;;;;;;;10.65;100.00;98899.34;5055402;28;20021;-74
2022/09/27 03:37:34;;;;;;;13.20;8.73;;;;;;;10.68;100.00;98895.38;5041751;28;20021;-75
2022/09/27 03:40:00;;;;;;;18.35;11.38;;;;;;;10.84;100.00;98893.09;5060844;28;20037;-75
2022/09/27 03:42:25;;;;;;;14.80;8.85;;;;;;;10.67;100.00;98874.75;5037383;28;20033;-75
2022/09/27 03:44:50;;;;;;;22.52;12.65;;;;;;;10.66;100.00;98889.34;5035929;28;20116;-76
2022/09/27 03:47:16;;;;;;;19.48;11.88;;;;;;;10.59;100.00;98883.91;5036008;28;20019;-76
2022/09/27 03:49:41;;;;;;;10.07;8.10;;;;;;;10.69;100.00;98884.31;5037771;28;20503;-75
2022/09/27 03:52:06;;;;;;;17.58;10.95;;;;;;;10.79;100.00;98883.94;5055239;28;20029;-77
2022/09/27 03:54:32;;;;;;;16.95;11.20;;;;;;;10.70;100.00;98879.78;5037047;28;20017;-76
2022/09/27 03:56:57;;;;;;;18.73;10.68;;;;;;;10.69;100.00;98878.91;5037060;28;20025;-77
2022/09/27 03:59:23;;;;;;;18.98;11.90;;;;;;;10.73;100.00;98879.34;5037987;28;20020;-77
2022/09/27 04:01:49;;;;;;;13.30;9.43;;;;;;;10.73;100.00;98876.63;5039121;28;20021;-77
2022/09/27 04:04:14;;;;;;;18.23;12.35;;;;;;;10.80;100.00;98874.75;5064498;28;20021;-78
2022/09/27 04:06:39;;;;;;;20.48;11.95;;;;;;;10.74;100.00;98875.59;5046307;28;20028;-78
2022/09/27 04:09:05;;;;;;;20.67;12.52;;;;;;;10.88;100.00;98877.25;5046781;28;20029;-78
2022/09/27 04:11:33;;;;;;;15.80;10.60;;;;;;;10.84;100.00;98870.59;5045494;28;20492;-80
2022/09/27 04:13:59;;;;;;;14.70;10.50;;;;;;;10.90;100.00;98875.19;5064527;28;20032;-79
2022/09/27 04:16:24;;;;;;;22.20;12.30;;;;;;;10.92;100.00;98877.69;5044400;28;20017;-78
2022/09/27 04:18:50;;;;;;;17.73;11.75;;;;;;;10.83;100.00;98880.59;5059308;28;20040;-77
2022/09/27 04:21:15;;;;;;;24.83;15.13;;;;;;;10.93;100.00;98873.91;5041533;28;20120;-78
2022/09/27 04:23:41;;;;;;;18.15;13.80;;;;;;;11.02;100.00;98876.22;5042338;28;20021;-78
2022/09/27 04:26:06;;;;;;;18.33;12.50;;;;;;;10.87;100.00;98876.41;5044418;28;20057;-78
2022/09/27 04:28:32;;;;;;;24.98;12.93;;;;;;;10.99;100.00;98873.91;5042800;28;20024;-78
2022/09/27 04:30:58;;;;;;;20.98;12.25;;;;;;;10.90;100.00;98869.78;5044198;28;20030;-77
2022/09/27 04:33:23;;;;;;;21.25;14.50;;;;;;;10.89;100.00;98873.53;5044241;28;20036;-77
2022/09/27 04:38:33;;;;;;;20.17;13.80;;;;;;;11.09;100.00;98868.91;5066133;28;20041;-78
2022/09/27 04:41:00;;;;;;;28.60;16.67;;;;;;;10.86;100.00;98868.50;5041584;28;20461;-77
2022/09/27 04:43:27;;;;;;;22.02;12.52;;;;;;;10.99;100.00;98868.50;5040692;28;20025;-77
2022/09/27 04:45:52;;;;;;;23.52;13.82;;;;;;;10.85;100.00;98866.84;5055806;28;20032;-78
2022/09/27 04:48:18;;;;;;;22.52;13.65;;;;;;;10.80;100.00;98869.34;5038049;28;20021;-78
2022/09/27 04:50:43;;;;;;;25.33;15.10;;;;;;;10.74;100.00;98859.34;5037908;28;20084;-77
2022/09/27 04:53:15;;;;;;;24.45;14.70;;;;;;;10.90;100.00;98864.34;5037133;28;20078;-76
2022/09/27 04:55:45;;;;;;;23.35;15.73;;;;;;;11.01;100.00;98871.00;5035759;28;20025;-76
2022/09/27 04:58:10;;;;;;;17.02;12.27;;;;;;;11.20;100.00;98863.88;5034916;28;20504;-76
2022/09/27 05:00:36;;;;;;;28.25;17.15;;;;;;;11.21;100.00;98870.97;5036011;28;20017;-76
2022/09/27 05:03:01;;;;;;;15.50;10.85;;;;;;;11.07;100.00;98865.56;5052914;28;20021;-76
2022/09/27 05:05:26;;;;;;;28.00;15.55;;;;;;;10.93;100.00;98874.75;5036299;28;20035;-76
2022/09/27 05:07:52;;;;;;;29.55;15.88;;;;;;;11.11;100.00;98866.81;5036126;28;20031;-77
2022/09/27 05:10:17;;;;;;;21.90;15.43;;;;;;;11.14;100.00;98870.97;5035963;28;20031;-77
2022/09/27 05:12:43;;;;;;;28.38;15.93;;;;;;;11.12;100.00;98868.47;5035906;28;20043;-77
2022/09/27 05:15:09;;;;;;;22.25;16.05;;;;;;;10.98;100.00;98860.59;5039859;28;20028;-77
2022/09/27 05:17:34;;;;;;;24.33;15.82;;;;;;;11.07;100.00;98864.72;5034989;28;20017;-76
2022/09/27 05:20:00;;;;;;;23.10;13.95;;;;;;;11.17;100.00;98864.31;5034491;28;20032;-77
2022/09/27 05:22:25;;;;;;;32.72;16.20;;;;;;;11.25;100.00;98855.97;5037385;28;20029;-78
2022/09/27 05:24:50;;;;;;;25.15;16.15;;;;;;;11.32;100.00;98862.19;5059107;28;20029;-78
2022/09/27 05:27:19;;;;;;;30.23;17.65;;;;;;;11.40;100.00;98870.09;5041562;28;20028;-78
2022/09/27 05:29:47;;;;;;;30.25;18.73;;;;;;;11.18;100.00;98871.41;5044040;28;20178;-78
2022/09/27 05:32:13;;;;;;;29.70;15.93;;;;;;;11.25;100.00;98872.22;5044208;28;20021;-78
2022/09/27 05:34:38;;;;;;;31.48;17.73;;;;;;;11.11;100.00;98861.41;5044920;28;20495;-78
2022/09/27 05:37:03;;;;;;;28.83;16.70;;;;;;;11.14;100.00;98866.38;5039648;28;20067;-75
2022/09/27 05:39:29;;;;;;;25.27;16.05;;;;;;;11.21;100.00;98876.38;5034369;28;20116;-76
2022/09/27 05:41:55;;;;;;;27.60;17.05;;;;;;;11.20;100.00;98869.28;5051500;28;20029;-76
2022/09/27 05:44:20;;;;;;;31.45;19.77;;;;;;;11.12;100.00;98868.47;5034443;28;20043;-77
2022/09/27 05:46:46;;;;;;;25.92;14.07;;;;;;;11.02;100.00;98868.09;5034310;28;20055;-77
2022/09/27 05:49:11;;;;;;;24.73;16.15;;;;;;;10.91;100.00;98871.44;5033717;28;20445;-77
2022/09/27 05:51:36;;;;;;;28.38;17.85;;;;;;;11.25;100.00;98877.63;5052269;28;20120;-77
2022/09/27 05:54:02;;;;;;;26.33;16.45;;;;;;;11.29;100.00;98873.47;5051952;28;20027;-77
2022/09/27 05:56:28;;;;;;;22.40;13.68;;;;;;;11.39;100.00;98868.41;5048313;28;20025;-76
2022/09/27 05:58:53;;;;;;;24.65;16.80;;;;;;;11.38;100.00;98888.44;5033608;28;20025;-75
2022/09/27 06:01:19;;;;;;;24.20;12.52;;;;;;;11.32;100.00;98879.28;5051542;28;20032;-75
2022/09/27 06:03:46;;;;;;;21.63;14.00;;;;;;;11.46;100.00;98885.50;5033593;28;20035;-75
2022/09/27 06:06:12;;;;;;;25.58;14.05;;;;;;;11.54;100.00;98882.56;5033403;28;20056;-76
2022/09/27 06:08:38;;;;;;;29.80;16.05;;;;;;;11.46;100.00;98882.78;5033348;28;20036;-77
2022/09/27 06:11:06;;;;;;;28.75;15.07;;;;;;;11.34;100.00;98887.19;5051018;28;20025;-77
2022/09/27 06:13:32;;;;;;;25.40;15.93;;;;;;;11.46;100.00;98890.91;5054215;28;20016;-77
2022/09/27 06:15:58;;;;;;;24.35;15.63;;;;;;;11.41;100.00;98888.03;5037781;28;20025;-78
2022/09/27 06:18:24;;;;;;;25.77;15.65;;;;;;;11.48;100.00;98883.41;5056847;28;20021;-78
2022/09/27 06:20:50;;;;;;;38.92;20.35;;;;;;;11.57;100.00;98887.56;5043291;28;20075;-79
2022/09/27 06:23:24;;;;;;;33.83;17.90;;;;;;;11.75;100.00;98880.63;5045061;28;20021;-78
2022/09/27 06:25:50;;;;;;;32.28;18.23;;;;;;;11.57;100.00;98887.56;5045337;28;20051;-79
2022/09/27 06:28:17;;;;;;;35.70;18.08;;;;;;;11.56;100.00;98891.31;5038592;28;20052;-79
2022/09/27 06:30:45;;;;;;;38.63;19.67;;;;;;;11.44;100.00;98881.34;5029704;28;20158;-73
2022/09/27 06:33:19;;;;;;;41.30;21.85;;;;;;;11.20;100.00;98880.13;5033355;28;20063;-72
2022/09/27 06:35:48;;;;;;;29.73;18.83;;;;;;;11.42;100.00;98886.97;5033306;28;20017;-72
2022/09/27 06:38:17;;;;;;;45.35;20.98;;;;;;;11.31;100.00;98882.19;5034235;28;20029;-72
2022/09/27 06:40:44;;;;;;;48.83;21.65;;;;;;;11.47;100.00;98887.16;5028372;28;20028;-71
2022/09/27 06:43:15;;;;;;;53.05;21.90;;;;;;;11.53;100.00;98886.31;5020577;28;20197;-72
2022/09/27 06:45:41;;;;;;;27.83;17.20;;;;;;;11.22;100.00;98864.53;5034752;28;20052;-72
2022/09/27 06:48:09;;;;;;;38.03;17.35;;;;;;;11.03;100.00;98885.19;5025726;28;20033;-71
2022/09/27 06:50:37;;;;;;;26.05;14.80;;;;;;;10.70;100.00;98890.59;5032310;28;20095;-71
2022/09/27 06:53:04;;;;;;;27.13;13.73;;;;;;;10.75;100.00;98888.06;5049698;28;20029;-72
2022/09/27 06:55:29;;;;;;;23.80;12.73;;;;;;;10.98;100.00;98887.66;5049954;28;20481;-72
2022/09/27 07:00:41;;;;;;;18.17;11.32;;;;;;;11.13;100.00;98897.22;5028598;28;20114;-72
2022/09/27 07:03:10;;;;;;;18.98;9.68;;;;;;;10.84;100.00;98903.09;5038305;28;20022;-73
2022/09/27 07:05:36;;;;;;;16.05;9.32;;;;;;;10.61;100.00;98903.47;5017138;28;20025;-71
2022/09/27 07:08:03;;;;;;;18.60;9.38;;;;;;;10.58;100.00;98907.44;5031488;28;20031;-72
2022/09/27 07:10:32;;;;;;;9.13;6.90;;;;;;;10.67;100.00;98904.53;5025042;28;20497;-72
2022/09/27 07:13:06;;;;;;;11.90;7.00;;;;;;;10.62;100.00;98905.13;5024449;28;20033;-70
2022/09/27 07:15:36;;;;;;;12.35;5.70;;;;;;;10.52;100.00;98913.69;5027199;28;20028;-70
2022/09/27 07:18:04;;;;;;;15.60;6.38;;;;;;;10.60;100.00;98908.06;5024220;28;20045;-71
2022/09/27 07:20:30;;;;;;;14.65;7.03;;;;;;;10.52;100.00;98916.38;5024692;28;20035;-71
2022/09/27 07:22:55;;;;;;;8.02;5.95;;;;;;;10.76;100.00;98922.25;5024448;28;20102;-70
2022/09/27 07:25:22;;;;;;;8.32;5.05;;;;;;;10.72;100.00;98931.81;5025206;28;20017;-70
2022/09/27 07:27:47;;;;;;;11.85;4.80;;;;;;;10.59;100.00;98913.69;5024374;28;20025;-70
2022/09/27 07:30:13;;;;;;;6.63;5.07;;;;;;;10.67;100.00;98923.47;5036610;28;20025;-70
2022/09/27 07:32:38;;;;;;;10.40;4.70;;;;;;;10.71;100.00;98927.44;5041843;28;20424;-71
2022/09/27 07:35:05;;;;;;;6.78;3.75;;;;;;;10.91;100.00;98925.56;5023688;28;20029;-71
2022/09/27 07:37:36;;;;;;;3.42;1.80;;;;;;;10.72;100.00;98931.81;5025111;28;20048;-72
2022/09/27 07:40:05;;;;;;;4.10;1.85;;;;;;;10.47;100.00;98940.50;5046726;28;20025;-72
2022/09/27 07:42:31;;;;;;;4.10;2.40;;;;;;;10.68;100.00;98930.53;5045851;28;20507;-72
2022/09/27 07:44:56;;;;;;;3.78;2.20;;;;;;;10.58;100.00;98931.78;5029422;28;20037;-73
2022/09/27 07:47:26;;;;;;;6.18;1.73;;;;;;;10.90;100.00;98945.56;5028623;28;20027;-73
2022/09/27 07:49:51;;;;;;;4.00;1.75;;;;;;;10.95;100.00;98948.47;5027756;28;20111;-72
2022/09/27 07:52:18;;;;;;;2.75;1.40;;;;;;;10.98;100.00;98937.25;5029287;28;20147;-72
2022/09/27 07:54:45;;;;;;;3.08;1.40;;;;;;;10.92;100.00;98937.25;5046917;28;20048;-73
2022/09/27 07:57:11;;;;;;;7.68;1.02;;;;;;;11.01;100.00;98950.34;5044785;28;20021;-72
2022/09/27 07:59:36;;;;;;;5.72;1.13;;;;;;;11.05;100.00;98951.59;5029668;28;20039;-73
2022/09/27 08:02:01;;;;;;;4.57;1.15;;;;;;;11.13;100.00;98945.97;5028444;28;20056;-73
2022/09/27 08:04:27;;;;;;;1.40;1.20;;;;;;;11.06;100.00;98950.56;5028128;28;20430;-73
2022/09/27 08:06:53;;;;;;;4.97;1.77;;;;;;;11.43;100.00;98948.25;5046006;28;20020;-74
2022/09/27 08:09:18;;;;;;;5.18;1.23;;;;;;;11.35;100.00;98956.59;5041570;28;20075;-73
2022/09/27 08:11:44;;;;;;;8.80;1.73;;;;;;;11.32;100.00;98959.72;5042726;28;20024;-74
2022/09/27 08:14:10;;;;;;;5.35;1.52;;;;;;;11.24;100.00;98962.66;5045076;28;20043;-74
2022/09/27 08:16:36;;;;;;;4.78;2.05;;;;;;;11.11;100.00;98953.47;5028408;28;20017;-74
2022/09/27 08:19:01;;;;;;;3.47;1.90;;;;;;;11.24;100.00;98957.22;5027261;28;20025;-74
2022/09/27 08:21:27;;;;;;;5.85;2.42;;;;;;;11.50;100.00;98962.63;5046137;28;20029;-74
2022/09/27 08:23:52;;;;;;;5.50;2.55;;;;;;;11.38;100.00;98958.88;5045569;28;20017;-74
2022/09/27 08:26:18;;;;;;;5.00;2.03;;;;;;;11.40;100.00;98964.91;5027520;28;20028;-74
2022/09/27 08:28:46;;;;;;;5.30;2.28;;;;;;;11.12;100.00;98965.97;5044728;28;20013;-74
2022/09/27 08:31:11;;;;;;;5.13;2.03;;;;;;;11.26;100.00;98979.50;5028508;28;20111;-74
2022/09/27 08:33:36;;;;;;;5.28;2.00;;;;;;;11.38;100.00;98980.56;5026772;28;20109;-74
2022/09/27 08:36:02;;;;;;;9.40;3.08;;;;;;;11.54;100.00;98980.13;5028691;28;20037;-74
2022/09/27 08:38:27;;;;;;;4.05;1.85;;;;;;;11.61;100.00;98980.94;5024100;28;20025;-74
2022/09/27 08:40:56;;;;;;;5.30;2.05;;;;;;;11.18;100.00;98985.16;5026972;28;20489;-75
2022/09/27 08:43:36;;;;;;;9.02;2.88;;;;;;;11.24;100.00;98984.31;5028744;28;20021;-75
2022/09/27 08:46:31;;;;;;;6.13;2.50;;;;;;;11.37;100.00;98985.16;5027199;28;20032;-74
2022/09/27 08:49:15;;;;;;;14.05;2.20;;;;;;;11.43;100.00;98983.47;5026992;28;20020;-75
2022/09/27 08:51:41;;;;;;;8.45;3.00;;;;;;;11.32;100.00;98981.38;5028618;28;20024;-75
2022/09/27 08:54:38;;;;;;;9.40;2.38;;;;;;;11.27;100.00;98994.72;5027508;28;20029;-76
2022/09/27 08:57:09;;;;;;;3.30;2.00;;;;;;;11.21;100.00;98996.38;5038661;28;20101;-74
2022/09/27 08:59:41;;;;;;;10.47;2.40;;;;;;;11.23;100.00;99004.31;5029557;28;20021;-74
2022/09/27 09:02:20;;;;;;;9.27;2.45;;;;;;;11.14;100.00;99000.97;5027237;28;20036;-73
2022/09/27 09:04:49;;;;;;;10.50;2.70;;;;;;;11.24;100.00;98997.88;5026304;28;20047;-74
2022/09/27 09:07:49;;;;;;;5.13;2.25;;;;;;;11.11;100.00;99001.41;5027049;28;20036;-73
2022/09/27 09:13:18;;;;;;;7.32;2.08;;;;;;;11.18;100.00;99007.66;5044205;28;20024;-74
2022/09/27 09:16:00;;;;;;;10.38;2.97;;;;;;;10.87;100.00;99006.34;5048086;28;20044;-73
2022/09/27 09:18:33;;;;;;;11.57;2.45;;;;;;;10.83;100.00;99007.00;5024230;28;20017;-75
2022/09/27 09:21:24;;;;;;;4.75;2.47;;;;;;;11.06;100.00;98999.31;5027026;28;20086;-72
2022/09/27 09:24:03;;;;;;;4.53;2.80;;;;;;;10.95;100.00;99001.78;5045831;28;20033;-73
2022/09/27 09:26:36;;;;;;;8.48;3.10;;;;;;;10.84;100.00;99022.19;5028566;28;20025;-72
2022/09/27 09:29:18;;;;;;;6.57;3.47;;;;;;;10.62;100.00;99023.38;5026666;28;20032;-73
2022/09/27 09:32:01;;;;;;;5.25;2.88;;;;;;;10.50;100.00;99021.28;5028723;28;20052;-74
2022/09/27 09:34:39;;;;;;;8.45;2.58;;;;;;;10.72;100.00;99023.84;5028125;28;20076;-73
2022/09/27 09:37:15;;;;;;;6.85;4.00;;;;;;;10.95;100.00;99024.28;5025024;28;20029;-72
2022/09/27 09:39:48;;;;;;;6.03;2.65;;;;;;;10.96;100.00;99017.84;5026792;28;20020;-73
2022/09/27 09:42:36;;;;;;;5.65;2.55;;;;;;;10.69;100.00;99025.06;5020399;28;20052;-73
2022/09/27 09:45:20;;;;;;;6.70;2.40;;;;;;;10.64;100.00;99021.31;5012005;28;20036;-72
2022/09/27 09:47:53;;;;;;;8.02;2.75;;;;;;;10.76;100.00;99030.53;5020178;28;20080;-72
2022/09/27 09:50:34;;;;;;;18.15;3.40;;;;;;;10.88;100.00;99028.84;5026625;28;20051;-72
2022/09/27 09:53:16;;;;;;;7.07;2.25;;;;;;;10.60;100.00;99032.53;5020906;28;20238;-74
2022/09/27 09:55:47;;;;;;;6.53;2.53;;;;;;;10.57;100.00;99027.53;5022909;28;20031;-72
2022/09/27 09:58:32;;;;;;;7.43;1.80;;;;;;;10.57;100.00;99027.53;5044551;28;20017;-72
2022/09/27 10:01:09;;;;;;;4.22;1.80;;;;;;;10.41;100.00;99030.59;5026398;28;20020;-72
2022/09/27 10:03:34;;;;;;;7.32;2.40;;;;;;;10.47;100.00;99035.19;5044661;28;20112;-73
2022/09/27 10:05:59;;;;;;;3.28;1.90;;;;;;;10.46;100.00;99047.06;5044543;28;20107;-75
2022/09/27 10:08:25;;;;;;;8.02;1.77;;;;;;;10.54;100.00;99033.34;5044614;28;20021;-72
2022/09/27 10:10:50;;;;;;;6.30;1.75;;;;;;;10.67;100.00;99042.56;5044299;28;20017;-72
2022/09/27 10:13:20;;;;;;;2.58;1.67;;;;;;;10.55;100.00;99040.41;5026433;28;20017;-73
2022/09/27 10:15:58;;;;;;;6.93;1.50;;;;;;;10.42;100.00;99056.59;5025214;28;20017;-72
2022/09/27 10:18:27;;;;;;;2.92;1.52;;;;;;;10.52;100.00;99046.25;5021943;28;20021;-73
2022/09/27 10:20:57;;;;;;;3.13;1.38;;;;;;;10.49;100.00;99043.94;5024371;28;20031;-72
2022/09/27 10:23:24;;;;;;;4.72;1.83;;;;;;;10.62;100.00;99055.84;5044440;28;20040;-73
2022/09/27 10:25:59;;;;;;;4.82;1.90;;;;;;;10.54;100.00;99052.28;5025071;28;20029;-73
2022/09/27 10:28:31;;;;;;;2.38;1.50;;;;;;;10.68;100.00;99044.22;5020378;28;20025;-74
2022/09/27 10:30:59;;;;;;;3.42;1.60;;;;;;;10.51;100.00;99041.88;5026268;28;20025;-74
2022/09/27 10:33:26;;;;;;;7.15;2.15;;;;;;;10.62;100.00;99050.44;5026380;28;20035;-74
2022/09/27 10:35:52;;;;;;;3.05;1.50;;;;;;;10.73;100.00;99044.44;5025152;28;20082;-75
2022/09/27 10:38:17;;;;;;;4.60;2.00;;;;;;;11.05;100.00;99046.38;5025721;28;20021;-74
2022/09/27 10:40:44;;;;;;;6.93;1.98;;;;;;;11.14;100.00;99055.97;5026394;28;20055;-75
2022/09/27 10:43:34;;;;;;;2.13;1.17;;;;;;;10.97;100.00;99054.72;5043099;28;20063;-75
2022/09/27 10:46:08;;;;;;;5.97;1.83;;;;;;;11.04;100.00;99063.69;5023624;28;20051;-74
2022/09/27 10:48:36;;;;;;;6.63;2.10;;;;;;;11.05;100.00;99051.81;5042645;28;20070;-74
2022/09/27 10:51:04;;;;;;;6.72;1.63;;;;;;;11.23;100.00;99055.78;5043146;28;20024;-74
2022/09/27 10:53:33;;;;;;;3.80;1.23;;;;;;;11.16;100.00;99069.31;5041689;28;20051;-73
2022/09/27 10:55:59;;;;;;;3.85;1.40;;;;;;;11.19;100.00;99065.38;5040752;28;20068;-74
2022/09/27 10:58:31;;;;;;;2.13;1.20;;;;;;;11.20;100.00;99062.44;5023197;28;20028;-71
2022/09/27 11:01:02;;;;;;;1.75;1.63;;;;;;;11.54;100.00;99066.00;5025366;28;20028;-73
2022/09/27 11:03:30;;;;;;;5.80;1.33;;;;;;;11.33;100.00;99069.75;5025016;28;20052;-74
2022/09/27 11:05:58;;;;;;;2.78;1.42;;;;;;;11.29;100.00;99063.94;5025140;28;20068;-75
2022/09/27 11:08:32;;;;;;;2.45;1.30;;;;;;;11.36;100.00;99053.09;5025699;28;20033;-73
2022/09/27 11:11:12;;;;;;;2.35;1.25;;;;;;;11.13;100.00;99081.38;5017445;28;20028;-73
2022/09/27 11:13:39;;;;;;;3.55;1.40;;;;;;;11.34;100.00;99076.81;5027213;28;20111;-73
2022/09/27 11:16:15;;;;;;;3.75;1.38;;;;;;;11.43;100.00;99081.03;5029546;28;20061;-73
2022/09/27 11:19:00;;;;;;;3.10;1.50;;;;;;;11.30;100.00;99075.59;5043665;28;20481;-73
2022/09/27 11:21:41;;;;;;;3.83;1.20;;;;;;;11.12;100.00;99074.31;5028575;28;20108;-76
2022/09/27 11:24:43;;;;;;;2.35;1.40;;;;;;;11.50;100.00;99065.59;5046579;28;20055;-73
2022/09/27 11:27:15;;;;;;;2.30;1.30;;;;;;;11.35;100.00;99067.69;5023841;28;20118;-73
2022/09/27 11:30:00;;;;;;;1.35;1.17;;;;;;;11.41;100.00;99077.69;5030027;28;20036;-74
2022/09/27 11:32:50;;;;;;;3.03;1.50;;;;;;;11.42;100.00;99073.94;5027550;28;20036;-74
2022/09/27 11:35:40;;;;;;;3.50;1.15;;;;;;;11.47;100.00;99076.84;5045994;28;20105;-75
2022/09/27 11:38:13;;;;;;;2.13;1.58;;;;;;;11.69;100.00;99072.88;5028519;28;20062;-73
2022/09/27 11:40:59;;;;;;;3.53;1.30;;;;;;;11.48;100.00;99083.94;5046628;28;20099;-73
2022/09/27 11:43:43;;;;;;;4.63;1.83;;;;;;;11.44;100.00;99076.44;5023636;28;20040;-73